Back to Top

Language: 

My Weather Underground Personal Weather Station Historical Data with Graphs...

Delerius Weather Station Historical Data
Daily Summary for January 12, 2018 Units:  Metric    English   Both
« Previous Day
Next Day »
Daily Weekly Monthly Yearly Custom
  High: Low: Average:
Temperature: 6.3 °C 5.4 °C 5.7 °C
Dew Point: 5.7 °C 4.7 °C 5.2 °C
Humidity: 97 % 94 % 96 %
Wind Speed: 16.1 km/h 0 km/h 5.3 km/h
Wind Gust: 29 km/h - -
Wind:- - SE
Pressure: 1027 hPa 1021.6 hPa -
Precipitation: 0 mm    
Historical Graphs
 
 
Tabular Data for January 12, 2018
Time Temperature Dew Point Pressure Wind Wind Speed Wind Gust Humidity Rainfall Rate (Hourly) solar Conditions
00:03 6.3 °C 5.7 °C 1026 hPa Calm     96 % 0 mm 0 W/m2
00:11 6.3 °C 5.7 °C 1026 hPa Calm     96 % 0 mm 0 W/m2
00:21 6.3 °C 5.7 °C 1026 hPa Calm     96 % 0 mm 0 W/m2
00:26 6.3 °C 5.7 °C 1026 hPa Calm     96 % 0 mm 0 W/m2
00:31 6.2 °C 5.6 °C 1026 hPa Calm     96 % 0 mm 0 W/m2
00:36 6.2 °C 5.6 °C 1026 hPa Calm     96 % 0 mm 0 W/m2
00:42 6.2 °C 5.6 °C 1026 hPa Calm     96 % 0 mm 0 W/m2
00:47 6.2 °C 5.6 °C 1026 hPa Calm     96 % 0 mm 0 W/m2
00:53 6.2 °C 5.6 °C 1026 hPa Calm     96 % 0 mm 0 W/m2
00:58 6.2 °C 5.6 °C 1026 hPa Calm     96 % 0 mm 0 W/m2
01:14 6.3 °C 5.7 °C 1026 hPa Calm   1.6 km/h 96 % 0 mm 0 W/m2
01:22 6.3 °C 5.7 °C 1026 hPa Calm     96 % 0 mm 0 W/m2
01:37 6.3 °C 5.7 °C 1026.3 hPa Calm   1.6 km/h 96 % 0 mm 0 W/m2
01:44 6.3 °C 5.7 °C 1026.3 hPa Calm     96 % 0 mm 0 W/m2
01:48 6.3 °C 5.7 °C 1026.3 hPa Calm     96 % 0 mm 0 W/m2
01:53 6.3 °C 5.7 °C 1026.3 hPa Calm     96 % 0 mm 0 W/m2
02:17 6.2 °C 5.6 °C 1026.3 hPa Calm     96 % 0 mm 0 W/m2
02:22 6.2 °C 5.6 °C 1026.3 hPa Calm     96 % 0 mm 0 W/m2
02:44 6.2 °C 5.6 °C 1026.6 hPa Calm     96 % 0 mm 0 W/m2
03:08 6.1 °C 5.5 °C 1026.3 hPa Calm     96 % 0 mm 0 W/m2
03:13 6.1 °C 5.5 °C 1026.3 hPa Calm     96 % 0 mm 0 W/m2
03:36 6 °C 5.4 °C 1026.3 hPa Calm     96 % 0 mm 0 W/m2
03:42 6 °C 5.4 °C 1026.3 hPa Calm     96 % 0 mm 0 W/m2
03:48 5.9 °C 5.3 °C 1026.3 hPa Calm     96 % 0 mm 0 W/m2
04:01 5.9 °C 5.3 °C 1026.3 hPa Calm     96 % 0 mm 0 W/m2
04:08 5.8 °C 5.2 °C 1026.3 hPa Calm     96 % 0 mm 0 W/m2
04:26 5.7 °C 5.1 °C 1026.3 hPa Calm     96 % 0 mm 0 W/m2
04:41 5.6 °C 5 °C 1026.3 hPa Calm     96 % 0 mm 0 W/m2
04:47 5.6 °C 5 °C 1026.3 hPa Calm     96 % 0 mm 0 W/m2
04:55 5.6 °C 5 °C 1026.3 hPa Calm     96 % 0 mm 0 W/m2
05:05 5.6 °C 5 °C 1026.3 hPa Calm     96 % 0 mm 0 W/m2
05:10 5.6 °C 5 °C 1026.3 hPa Calm     96 % 0 mm 0 W/m2
05:20 5.6 °C 5 °C 1026.3 hPa ENE 1.6 km/h 3.2 km/h 96 % 0 mm 0 W/m2
05:33 5.6 °C 5.2 °C 1026 hPa Calm     97 % 0 mm 0 W/m2
05:38 5.6 °C 5.2 °C 1026 hPa Calm   3.2 km/h 97 % 0 mm 0 W/m2
05:52 5.6 °C 5.2 °C 1026 hPa Calm   3.2 km/h 97 % 0 mm 0 W/m2
06:02 5.6 °C 5.2 °C 1026.3 hPa ENE 1.6 km/h 8 km/h 97 % 0 mm 0 W/m2
06:18 5.6 °C 5.2 °C 1026.3 hPa East 1.6 km/h 6.4 km/h 97 % 0 mm 0 W/m2
06:26 5.6 °C 5.2 °C 1026 hPa East 1.6 km/h 6.4 km/h 97 % 0 mm 0 W/m2
06:34 5.6 °C 5.2 °C 1026 hPa ESE 3.2 km/h 9.7 km/h 97 % 0 mm 0 W/m2
06:42 5.6 °C 5.2 °C 1026.3 hPa East 1.6 km/h 6.4 km/h 97 % 0 mm 0 W/m2
06:47 5.6 °C 5.2 °C 1026 hPa East 1.6 km/h 4.8 km/h 97 % 0 mm 0 W/m2
07:00 5.6 °C 5.2 °C 1026.3 hPa ESE 3.2 km/h 9.7 km/h 97 % 0 mm 0 W/m2
07:11 5.6 °C 5.2 °C 1026.3 hPa SE 3.2 km/h 8 km/h 97 % 0 mm 0 W/m2
07:19 5.6 °C 5.2 °C 1026 hPa ESE 3.2 km/h 6.4 km/h 97 % 0 mm 0 W/m2
07:41 5.6 °C 5.2 °C 1026.3 hPa ESE 1.6 km/h 4.8 km/h 97 % 0 mm 0 W/m2
07:48 5.6 °C 5.2 °C 1026.6 hPa SE 4.8 km/h 8 km/h 97 % 0 mm 0 W/m2
07:53 5.6 °C 5.2 °C 1026.6 hPa Calm     97 % 0 mm 0 W/m2
08:06 5.6 °C 5.2 °C 1026.6 hPa Calm     97 % 0 mm 0 W/m2
08:31 5.6 °C 5.2 °C 1026.6 hPa SSE 1.6 km/h 4.8 km/h 97 % 0 mm 0 W/m2
08:38 5.6 °C 5.2 °C 1026.6 hPa SE 4.8 km/h 6.4 km/h 97 % 0 mm 0 W/m2
08:54 5.6 °C 5.2 °C 1026.6 hPa ESE 4.8 km/h 8 km/h 97 % 0 mm 9 W/m2
09:00 5.5 °C 5.1 °C 1026.3 hPa SE 6.4 km/h 9.7 km/h 97 % 0 mm 11 W/m2
09:07 5.5 °C 5.1 °C 1026.6 hPa ESE 4.8 km/h 9.7 km/h 97 % 0 mm 12 W/m2
09:12 5.5 °C 5.1 °C 1026.6 hPa SE 6.4 km/h 9.7 km/h 97 % 0 mm 12 W/m2
09:18 5.5 °C 5.1 °C 1026.6 hPa SE 3.2 km/h 8 km/h 97 % 0 mm 16 W/m2
09:26 5.6 °C 5.2 °C 1026.6 hPa ESE 6.4 km/h 9.7 km/h 97 % 0 mm 16 W/m2
09:34 5.6 °C 5.2 °C 1026.6 hPa ESE 3.2 km/h 8 km/h 97 % 0 mm 18 W/m2
09:44 5.6 °C 5.2 °C 1026.6 hPa SE 3.2 km/h 8 km/h 97 % 0 mm 19 W/m2
09:57 5.5 °C 5.1 °C 1026.6 hPa SE 4.8 km/h 8 km/h 97 % 0 mm 19 W/m2
10:05 5.5 °C 5.1 °C 1027 hPa SE 4.8 km/h 9.7 km/h 97 % 0 mm 12 W/m2
10:15 5.4 °C 4.9 °C 1027 hPa SE 9.7 km/h 12.9 km/h 97 % 0 mm 21 W/m2
10:22 5.4 °C 4.9 °C 1026.6 hPa SE 6.4 km/h 9.7 km/h 97 % 0 mm 30 W/m2
10:32 5.4 °C 4.9 °C 1026.6 hPa SE 4.8 km/h 8 km/h 97 % 0 mm 51 W/m2
10:41 5.5 °C 5.1 °C 1026.6 hPa SE 4.8 km/h 8 km/h 97 % 0 mm 67 W/m2
10:49 5.6 °C 5.2 °C 1026.3 hPa SSE 4.8 km/h 9.7 km/h 97 % 0 mm 77 W/m2
11:07 5.6 °C 5.2 °C 1026.3 hPa SSE 1.6 km/h 6.4 km/h 97 % 0 mm 69 W/m2
11:13 5.6 °C 5.2 °C 1026.3 hPa Calm   3.2 km/h 97 % 0 mm 91 W/m2
11:22 5.7 °C 5.3 °C 1026.3 hPa SSE 1.6 km/h 6.4 km/h 97 % 0 mm 77 W/m2
11:27 5.7 °C 5.3 °C 1026.3 hPa SE 9.7 km/h 12.9 km/h 97 % 0 mm 42 W/m2
11:33 5.7 °C 5.3 °C 1026 hPa SSE 8 km/h 12.9 km/h 97 % 0 mm 54 W/m2
11:42 5.7 °C 5.3 °C 1026 hPa SE 9.7 km/h 12.9 km/h 97 % 0 mm 67 W/m2
11:47 5.7 °C 5.3 °C 1026 hPa SE 9.7 km/h 14.5 km/h 97 % 0 mm 83 W/m2
11:53 5.7 °C 5.3 °C 1026 hPa ESE 3.2 km/h 8 km/h 97 % 0 mm 58 W/m2
11:59 5.8 °C 5.3 °C 1025.6 hPa SE 6.4 km/h 11.3 km/h 97 % 0 mm 49 W/m2
12:05 5.8 °C 5.3 °C 1025.6 hPa ESE 8 km/h 11.3 km/h 97 % 0 mm 79 W/m2
12:15 5.8 °C 5.3 °C 1025.6 hPa SE 4.8 km/h 8 km/h 97 % 0 mm 42 W/m2
12:25 5.8 °C 5.3 °C 1025.6 hPa SSE 9.7 km/h 16.1 km/h 97 % 0 mm 54 W/m2
13:04 5.9 °C 5.3 °C 1024.9 hPa SE 3.2 km/h 8 km/h 96 % 0 mm 21 W/m2
13:12 5.9 °C 5.3 °C 1024.9 hPa ESE 8 km/h 11.3 km/h 96 % 0 mm 18 W/m2
13:17 5.9 °C 5.3 °C 1024.9 hPa ESE 8 km/h 12.9 km/h 96 % 0 mm 16 W/m2
13:25 5.8 °C 5.1 °C 1024.6 hPa ESE 6.4 km/h 11.3 km/h 95 % 0 mm 26 W/m2
13:35 5.8 °C 5.1 °C 1024.6 hPa ESE 8 km/h 12.9 km/h 95 % 0 mm 12 W/m2
13:49 5.7 °C 4.9 °C 1024.6 hPa ESE 8 km/h 12.9 km/h 95 % 0 mm 21 W/m2
13:55 5.7 °C 4.9 °C 1024.6 hPa SE 6.4 km/h 11.3 km/h 95 % 0 mm 14 W/m2
14:06 5.7 °C 4.9 °C 1024.6 hPa ESE 9.7 km/h 14.5 km/h 95 % 0 mm 9 W/m2
14:23 5.6 °C 5 °C 1024.3 hPa ESE 6.4 km/h 11.3 km/h 96 % 0 mm 5 W/m2
14:38 5.6 °C 5 °C 1024.6 hPa SE 8 km/h 11.3 km/h 96 % 0 mm 12 W/m2
14:49 5.6 °C 5 °C 1024.6 hPa SE 8 km/h 11.3 km/h 96 % 0 mm 16 W/m2
15:00 5.7 °C 5.1 °C 1024.6 hPa ESE 4.8 km/h 11.3 km/h 96 % 0 mm 33 W/m2
15:05 5.7 °C 5.1 °C 1024.6 hPa ESE 4.8 km/h 12.9 km/h 96 % 0 mm 37 W/m2
15:12 5.8 °C 5.2 °C 1024.3 hPa ESE 8 km/h 11.3 km/h 96 % 0 mm 28 W/m2
15:19 5.8 °C 5.2 °C 1024.3 hPa SE 4.8 km/h 8 km/h 96 % 0 mm 19 W/m2
15:26 5.8 °C 5.2 °C 1024.3 hPa ESE 4.8 km/h 8 km/h 96 % 0 mm 11 W/m2
15:36 5.7 °C 5.1 °C 1023.9 hPa ESE 3.2 km/h 8 km/h 96 % 0 mm 14 W/m2
15:41 5.7 °C 5.1 °C 1023.9 hPa ESE 6.4 km/h 9.7 km/h 96 % 0 mm 14 W/m2
15:51 5.7 °C 5.1 °C 1023.9 hPa ESE 4.8 km/h 11.3 km/h 96 % 0 mm 11 W/m2
15:57 5.6 °C 5 °C 1023.9 hPa ESE 6.4 km/h 9.7 km/h 96 % 0 mm 5 W/m2
16:02 5.6 °C 5 °C 1023.9 hPa ESE 6.4 km/h 9.7 km/h 96 % 0 mm 0 W/m2
16:18 5.6 °C 5 °C 1023.9 hPa ESE 8 km/h 11.3 km/h 96 % 0 mm 0 W/m2
16:28 5.6 °C 5 °C 1023.9 hPa ESE 8 km/h 12.9 km/h 96 % 0 mm 0 W/m2
16:40 5.6 °C 5 °C 1023.9 hPa ESE 4.8 km/h 9.7 km/h 96 % 0 mm 0 W/m2
16:56 5.6 °C 5 °C 1023.9 hPa SE 8 km/h 11.3 km/h 96 % 0 mm 0 W/m2
17:04 5.6 °C 5 °C 1023.9 hPa ESE 8 km/h 11.3 km/h 96 % 0 mm 0 W/m2
17:18 5.6 °C 5 °C 1023.9 hPa East 6.4 km/h 9.7 km/h 96 % 0 mm 0 W/m2
17:43 5.6 °C 5 °C 1023.9 hPa ESE 6.4 km/h 11.3 km/h 96 % 0 mm 0 W/m2
17:56 5.6 °C 5 °C 1023.9 hPa ESE 8 km/h 9.7 km/h 96 % 0 mm 0 W/m2
18:13 5.6 °C 5 °C 1023.6 hPa ESE 11.3 km/h 16.1 km/h 96 % 0 mm 0 W/m2
18:29 5.6 °C 5 °C 1023.6 hPa ESE 11.3 km/h 17.7 km/h 96 % 0 mm 0 W/m2
18:44 5.5 °C 4.9 °C 1023.6 hPa SE 8 km/h 14.5 km/h 96 % 0 mm 0 W/m2
18:53 5.4 °C 4.8 °C 1023.6 hPa SE 6.4 km/h 11.3 km/h 96 % 0 mm 0 W/m2
19:01 5.4 °C 4.8 °C 1023.6 hPa SE 9.7 km/h 16.1 km/h 96 % 0 mm 0 W/m2
19:13 5.4 °C 4.8 °C 1023.6 hPa SE 9.7 km/h 11.3 km/h 96 % 0 mm 0 W/m2
19:29 5.4 °C 4.8 °C 1023.6 hPa SE 11.3 km/h 19.3 km/h 96 % 0 mm 0 W/m2
19:36 5.4 °C 4.8 °C 1023.2 hPa SE 6.4 km/h 11.3 km/h 96 % 0 mm 0 W/m2
19:41 5.4 °C 4.8 °C 1023.2 hPa ESE 11.3 km/h 16.1 km/h 96 % 0 mm 0 W/m2
19:58 5.4 °C 4.8 °C 1023.2 hPa SE 11.3 km/h 16.1 km/h 96 % 0 mm 0 W/m2
20:03 5.4 °C 4.8 °C 1023.2 hPa SE 12.9 km/h 20.9 km/h 96 % 0 mm 0 W/m2
20:12 5.5 °C 4.9 °C 1023.2 hPa SE 11.3 km/h 17.7 km/h 96 % 0 mm 0 W/m2
20:17 5.5 °C 4.9 °C 1023.2 hPa SE 9.7 km/h 16.1 km/h 96 % 0 mm 0 W/m2
20:40 5.6 °C 5 °C 1022.9 hPa ESE 12.9 km/h 16.1 km/h 96 % 0 mm 0 W/m2
20:46 5.6 °C 5 °C 1022.9 hPa SE 9.7 km/h 16.1 km/h 96 % 0 mm 0 W/m2
21:03 5.5 °C 4.8 °C 1022.9 hPa SE 11.3 km/h 20.9 km/h 95 % 0 mm 0 W/m2
21:08 5.6 °C 4.9 °C 1022.9 hPa SE 11.3 km/h 19.3 km/h 95 % 0 mm 0 W/m2
21:18 5.6 °C 4.9 °C 1022.9 hPa SE 9.7 km/h 17.7 km/h 95 % 0 mm 0 W/m2
21:23 5.5 °C 4.8 °C 1022.9 hPa SE 16.1 km/h 29 km/h 95 % 0 mm 0 W/m2
21:33 5.5 °C 4.8 °C 1022.9 hPa SE 11.3 km/h 17.7 km/h 95 % 0 mm 0 W/m2
21:43 5.5 °C 4.8 °C 1022.6 hPa SE 9.7 km/h 14.5 km/h 95 % 0 mm 0 W/m2
21:55 5.6 °C 4.9 °C 1022.2 hPa ESE 9.7 km/h 16.1 km/h 95 % 0 mm 0 W/m2
22:02 5.6 °C 4.9 °C 1022.2 hPa SE 11.3 km/h 17.7 km/h 95 % 0 mm 0 W/m2
22:11 5.6 °C 4.9 °C 1022.2 hPa SE 11.3 km/h 16.1 km/h 95 % 0 mm 0 W/m2
22:21 5.6 °C 4.9 °C 1021.9 hPa SE 14.5 km/h 20.9 km/h 95 % 0 mm 0 W/m2
22:36 5.6 °C 4.9 °C 1021.9 hPa SE 8 km/h 14.5 km/h 95 % 0 mm 0 W/m2
22:52 5.6 °C 4.9 °C 1021.9 hPa SE 12.9 km/h 19.3 km/h 95 % 0 mm 0 W/m2
23:05 5.6 °C 4.7 °C 1021.9 hPa SE 12.9 km/h 16.1 km/h 94 % 0 mm 0 W/m2
23:18 5.7 °C 4.8 °C 1021.6 hPa SE 11.3 km/h 16.1 km/h 94 % 0 mm 0 W/m2
23:33 5.7 °C 4.8 °C 1021.6 hPa SE 11.3 km/h 19.3 km/h 94 % 0 mm 0 W/m2
23:39 5.7 °C 4.8 °C 1021.6 hPa SE 11.3 km/h 14.5 km/h 94 % 0 mm 0 W/m2
23:48 5.7 °C 4.8 °C 1021.6 hPa SE 9.7 km/h 14.5 km/h 94 % 0 mm 0 W/m2
23:55 5.7 °C 4.8 °C 1021.6 hPa SE 9.7 km/h 14.5 km/h 94 % 0 mm 0 W/m2
Delerius-Weather
Compliments of Weather Underground - 1.5 mb

Data updates at regular intervals.